Time;durP1;ratioP1;P1;durP2;ratioP2;P2;SDS_P1;SDS_P2;PMS_P1;PMS_P2;Temp;Humidity;BMP_temperature;BMP_pressure;BME280_temperature;BME280_humidity;BME280_pressure;Samples;Min_cycle;Max_cycle;Signal;HPM_P1;HPM_P2
2022/09/13 00:02:19;;;;;;;1.40;0.70;;;;;;;12.03;79.53;98253.62;103812;1283;61127;-24
2022/09/13 00:04:46;;;;;;;1.30;0.80;;;;;;;11.98;78.78;98251.64;104072;1284;74615;-24
2022/09/13 00:07:17;;;;;;;1.00;0.90;;;;;;;11.81;79.75;98250.90;104053;1284;76057;-24
2022/09/13 00:09:44;;;;;;;1.00;0.70;;;;;;;11.56;80.46;98248.82;104130;1283;74555;-24
2022/09/13 00:12:11;;;;;;;2.20;1.00;;;;;;;11.28;81.58;98245.59;104036;1284;61325;-24
2022/09/13 00:14:38;;;;;;;0.60;0.40;;;;;;;11.01;83.15;98245.02;104070;1284;61067;-24
2022/09/13 00:17:06;;;;;;;1.00;0.60;;;;;;;11.41;82.54;98244.48;104142;1284;74604;-24
2022/09/13 00:19:33;;;;;;;1.50;0.60;;;;;;;11.77;80.48;98246.05;104327;1283;75976;-24
2022/09/13 00:22:00;;;;;;;1.10;0.80;;;;;;;11.76;80.19;98246.63;104189;1284;74480;-24
2022/09/13 00:24:28;;;;;;;1.10;0.90;;;;;;;11.57;80.91;98243.30;103670;1284;61134;-24
2022/09/13 00:26:55;;;;;;;1.00;0.70;;;;;;;11.38;81.49;98250.70;104097;1284;61117;-24
2022/09/13 00:29:22;;;;;;;0.90;0.70;;;;;;;11.18;82.71;98250.05;104496;1284;74568;-24
2022/09/13 00:31:49;;;;;;;0.70;0.50;;;;;;;11.51;82.19;98249.79;104362;1284;75867;-24
2022/09/13 00:34:16;;;;;;;2.80;0.90;;;;;;;11.89;80.67;98254.02;104157;1284;74900;-24
2022/09/13 00:36:43;;;;;;;0.80;0.70;;;;;;;11.81;80.39;98250.70;104231;1284;62047;-24
2022/09/13 00:39:10;;;;;;;0.70;0.70;;;;;;;11.57;81.29;98249.21;104137;1284;62382;-24
2022/09/13 00:41:37;;;;;;;1.90;1.10;;;;;;;11.32;82.08;98249.67;104901;1271;73000;-24
2022/09/13 00:44:05;;;;;;;0.70;0.60;;;;;;;11.18;82.95;98252.63;104919;1271;76008;-25
2022/09/13 00:46:39;;;;;;;2.80;0.70;;;;;;;11.54;82.36;98252.83;104651;1271;74050;-24
2022/09/13 00:49:21;;;;;;;0.90;0.80;;;;;;;11.92;80.67;98252.18;104590;1274;61094;-24
2022/09/13 00:51:50;;;;;;;3.30;2.10;;;;;;;11.85;80.40;98252.52;104598;1274;62042;-23
2022/09/13 00:54:17;;;;;;;2.50;1.20;;;;;;;11.64;80.98;98250.44;104684;1272;73771;-23
2022/09/13 00:56:47;;;;;;;1.40;1.30;;;;;;;11.34;81.94;98247.98;104874;1274;75950;-23
2022/09/13 00:59:18;;;;;;;1.70;0.70;;;;;;;11.15;83.19;98249.05;105004;1274;74541;-23
2022/09/13 01:01:54;;;;;;;3.90;1.20;;;;;;;11.43;82.63;98244.83;105101;1271;61160;-23
2022/09/13 01:04:23;;;;;;;2.80;1.80;;;;;;;11.67;81.29;98246.98;105021;1271;61407;-23
2022/09/13 01:06:51;;;;;;;2.00;1.70;;;;;;;11.65;81.12;98243.35;104731;1272;74772;-23
2022/09/13 01:09:18;;;;;;;2.10;1.70;;;;;;;11.46;81.57;98250.23;104887;1271;76110;-23
2022/09/13 01:11:49;;;;;;;4.20;1.90;;;;;;;11.18;82.88;98250.22;104750;1274;74208;-23
2022/09/13 01:14:17;;;;;;;2.00;1.00;;;;;;;11.06;83.44;98252.05;104699;1274;62641;-23
2022/09/13 01:16:47;;;;;;;3.00;1.70;;;;;;;11.32;82.96;98251.94;104688;1271;61290;-23
2022/09/13 01:19:16;;;;;;;2.20;1.60;;;;;;;11.66;81.12;98248.58;104866;1271;74720;-23
2022/09/13 01:22:20;;;;;;;1.70;1.60;;;;;;;11.66;81.11;98253.69;104961;1271;75968;-23
2022/09/13 01:25:27;;;;;;;2.60;1.70;;;;;;;11.44;81.76;98255.34;104931;1271;74468;-23
2022/09/13 01:28:32;;;;;;;2.90;1.70;;;;;;;11.17;82.64;98254.12;105090;1271;61139;-23
2022/09/13 01:31:25;;;;;;;2.30;1.40;;;;;;;10.93;84.03;98255.16;105088;1271;61027;-24
2022/09/13 01:33:55;;;;;;;1.80;1.50;;;;;;;11.52;81.95;98252.27;104829;1270;74786;-24
2022/09/13 01:36:52;;;;;;;5.70;1.80;;;;;;;11.67;80.88;98251.33;105097;1271;76110;-25
2022/09/13 01:39:31;;;;;;;1.80;1.30;;;;;;;11.49;81.07;98254.14;104960;1271;74475;-25
2022/09/13 01:42:11;;;;;;;2.60;1.50;;;;;;;11.29;81.82;98253.29;105088;1271;62133;-25
2022/09/13 01:45:10;;;;;;;1.40;0.90;;;;;;;11.03;83.11;98250.41;104755;1274;61106;-24
2022/09/13 01:47:48;;;;;;;2.00;1.30;;;;;;;11.52;81.85;98249.22;104900;1271;74939;-25
2022/09/13 01:50:28;;;;;;;2.70;1.40;;;;;;;11.72;80.61;98251.16;104944;1271;76310;-24
2022/09/13 01:52:57;;;;;;;2.20;1.50;;;;;;;11.59;81.11;98244.50;104960;1271;74228;-24
2022/09/13 01:55:29;;;;;;;2.10;1.80;;;;;;;11.39;81.71;98244.70;104736;1271;61949;-24
2022/09/13 01:58:28;;;;;;;3.90;2.40;;;;;;;11.13;82.80;98240.41;105094;1271;61195;-24
2022/09/13 02:01:14;;;;;;;3.30;1.90;;;;;;;10.87;84.45;98243.02;105114;1271;74717;-24
2022/09/13 02:03:59;;;;;;;2.50;1.60;;;;;;;11.36;82.98;98238.52;104721;1271;74513;-24
2022/09/13 02:06:31;;;;;;;3.70;1.80;;;;;;;11.61;81.41;98236.34;104578;1274;75929;-25
2022/09/13 02:09:07;;;;;;;3.80;1.90;;;;;;;11.46;81.52;98233.44;104587;1274;61160;-24
2022/09/13 02:11:35;;;;;;;2.90;1.80;;;;;;;11.16;83.12;98227.80;104702;1274;61148;-24
2022/09/13 02:14:09;;;;;;;1.80;1.50;;;;;;;10.93;84.24;98230.90;104734;1271;75582;-24
2022/09/13 02:16:42;;;;;;;1.90;1.00;;;;;;;10.78;84.90;98226.33;104702;1271;75926;-25
2022/09/13 02:19:12;;;;;;;1.20;1.00;;;;;;;11.22;84.10;98226.86;104694;1274;74026;-24
2022/09/13 02:21:43;;;;;;;1.80;1.30;;;;;;;11.50;82.44;98224.30;104754;1272;61046;-24
2022/09/13 02:24:21;;;;;;;1.60;1.30;;;;;;;11.49;82.15;98224.31;105112;1271;61111;-25
2022/09/13 02:26:50;;;;;;;1.60;1.20;;;;;;;11.29;82.89;98224.46;104767;1274;75426;-24
2022/09/13 02:29:20;;;;;;;1.40;1.30;;;;;;;11.08;83.74;98225.80;104636;1271;75193;-25
2022/09/13 02:32:26;;;;;;;1.50;1.30;;;;;;;10.88;84.55;98229.23;104738;1271;74329;-24
2022/09/13 02:34:57;;;;;;;1.70;1.40;;;;;;;11.39;83.20;98230.66;104623;1274;61133;-24
2022/09/13 02:37:24;;;;;;;1.80;1.40;;;;;;;11.43;82.32;98230.21;104629;1272;61179;-25
2022/09/13 02:40:01;;;;;;;1.70;1.60;;;;;;;11.34;82.61;98231.27;104891;1271;73829;-25
2022/09/13 02:42:43;;;;;;;1.80;1.60;;;;;;;11.09;83.60;98235.78;104755;1271;74932;-24
2022/09/13 02:45:11;;;;;;;1.50;1.00;;;;;;;10.86;84.81;98233.05;104735;1271;74527;-24
2022/09/13 02:47:49;;;;;;;2.20;1.10;;;;;;;11.11;84.33;98232.46;104663;1271;62201;-24
2022/09/13 02:50:39;;;;;;;1.70;1.40;;;;;;;11.41;82.43;98229.90;104781;1271;61207;-25
2022/09/13 02:53:35;;;;;;;2.60;1.50;;;;;;;11.36;82.33;98229.70;104676;1271;75575;-24
2022/09/13 02:56:13;;;;;;;2.40;1.60;;;;;;;11.04;83.47;98231.54;104665;1271;74760;-24
2022/09/13 02:58:44;;;;;;;2.30;1.40;;;;;;;10.72;84.99;98234.40;104879;1271;74396;-24
2022/09/13 03:01:12;;;;;;;2.00;1.10;;;;;;;10.67;85.87;98238.73;104889;1271;62497;-24
2022/09/13 03:03:40;;;;;;;4.00;1.50;;;;;;;10.99;84.46;98235.29;105108;1271;61821;-24
2022/09/13 03:06:08;;;;;;;2.20;1.70;;;;;;;11.39;82.99;98235.66;105129;1271;75576;-25
2022/09/13 03:08:36;;;;;;;4.10;2.20;;;;;;;11.34;82.63;98236.52;104720;1274;75862;-25
2022/09/13 03:11:11;;;;;;;3.30;2.50;;;;;;;11.05;83.89;98237.86;105116;1271;73132;-24
2022/09/13 03:14:00;;;;;;;3.40;2.00;;;;;;;10.76;85.23;98246.48;104937;1271;61217;-24
2022/09/13 03:17:06;;;;;;;2.50;1.80;;;;;;;10.60;86.65;98246.16;104910;1271;61995;-24
2022/09/13 03:19:40;;;;;;;3.10;1.80;;;;;;;11.16;84.40;98254.05;104529;1274;75569;-25
2022/09/13 03:22:25;;;;;;;;;;;;;;;11.29;83.02;98253.64;104639;1274;76047;-24
2022/09/13 03:24:56;;;;;;;3.10;1.80;;;;;;;10.93;84.27;98255.35;104757;1271;74286;-25
2022/09/13 03:27:52;;;;;;;2.50;1.80;;;;;;;10.85;84.67;98254.00;104907;1271;61459;-25
2022/09/13 03:30:19;;;;;;;1.50;1.30;;;;;;;10.76;85.29;98255.60;104554;1271;61173;-24
2022/09/13 03:33:05;;;;;;;2.00;1.60;;;;;;;11.14;83.70;98253.70;104698;1274;75398;-24
2022/09/13 03:35:47;;;;;;;2.80;1.80;;;;;;;11.32;82.58;98255.82;104972;1274;76062;-24
2022/09/13 03:38:39;;;;;;;1.90;1.70;;;;;;;11.33;82.36;98257.66;104585;1272;72829;-25
2022/09/13 03:41:15;;;;;;;6.90;1.90;;;;;;;10.99;83.09;98251.48;104702;1271;61108;-24
2022/09/13 03:43:42;;;;;;;2.80;1.90;;;;;;;10.62;84.73;98256.70;104668;1271;62225;-24
2022/09/13 03:46:11;;;;;;;1.70;1.40;;;;;;;10.57;85.59;98254.59;104811;1271;74394;-25
2022/09/13 03:48:39;;;;;;;3.40;2.00;;;;;;;11.05;84.03;98254.59;104634;1271;76154;-24
2022/09/13 03:51:06;;;;;;;3.60;1.90;;;;;;;11.24;82.82;98256.20;104784;1271;73804;-24
2022/09/13 03:53:36;;;;;;;3.00;2.40;;;;;;;11.03;83.52;98258.23;104772;1271;61215;-25
2022/09/13 03:56:16;;;;;;;2.90;2.20;;;;;;;10.57;85.43;98265.27;104779;1271;61086;-24
2022/09/13 03:58:43;;;;;;;1.60;1.30;;;;;;;10.37;86.63;98261.46;104719;1271;73595;-24
2022/09/13 04:01:10;;;;;;;2.70;1.90;;;;;;;10.71;85.51;98258.66;104865;1271;75987;-25
2022/09/13 04:03:37;;;;;;;2.00;1.50;;;;;;;11.11;83.54;98255.85;104916;1271;74440;-24
2022/09/13 04:06:05;;;;;;;4.40;2.30;;;;;;;11.09;83.14;98255.35;104901;1271;61127;-24
2022/09/13 04:08:32;;;;;;;9.30;2.70;;;;;;;10.71;84.53;98255.86;104717;1274;61042;-25
2022/09/13 04:11:00;;;;;;;4.70;2.30;;;;;;;10.53;85.40;98254.37;104827;1271;75556;-23
2022/09/13 04:13:27;;;;;;;2.60;2.20;;;;;;;10.32;86.51;98250.64;104831;1271;75851;-24
2022/09/13 04:15:54;;;;;;;2.70;2.20;;;;;;;10.64;85.95;98254.02;104977;1270;74245;-24
2022/09/13 04:18:23;;;;;;;5.00;2.00;;;;;;;10.79;85.02;98250.80;104839;1271;61148;-24
2022/09/13 04:20:58;;;;;;;3.00;2.00;;;;;;;10.76;84.66;98248.21;104773;1271;61241;-24
2022/09/13 04:23:26;;;;;;;2.10;1.70;;;;;;;10.61;85.30;98250.20;104797;1271;74838;-24
2022/09/13 04:25:53;;;;;;;2.10;1.40;;;;;;;10.39;86.35;98252.41;104756;1271;75801;-24
2022/09/13 04:28:21;;;;;;;2.30;1.80;;;;;;;10.74;85.60;98259.02;104940;1271;73373;-24
2022/09/13 04:30:48;;;;;;;2.30;1.70;;;;;;;10.87;84.55;98255.25;104763;1271;62173;-24
2022/09/13 04:33:16;;;;;;;1.90;1.60;;;;;;;10.86;84.39;98254.46;104889;1270;61119;-24
2022/09/13 04:35:42;;;;;;;3.60;1.80;;;;;;;10.60;85.24;98256.16;104890;1270;75404;-24
2022/09/13 04:38:09;;;;;;;1.90;1.50;;;;;;;10.32;86.39;98255.77;104921;1271;76070;-25
2022/09/13 04:40:38;;;;;;;1.80;1.30;;;;;;;10.33;87.43;98261.60;104926;1271;74291;-24
2022/09/13 04:43:05;;;;;;;1.70;1.30;;;;;;;10.78;85.25;98262.85;104952;1271;61134;-24
2022/09/13 04:45:32;;;;;;;2.10;1.40;;;;;;;10.86;84.17;98260.71;104901;1271;61129;-24
2022/09/13 04:47:59;;;;;;;2.00;1.50;;;;;;;10.83;83.93;98262.70;104959;1271;75402;-24
2022/09/13 04:50:27;;;;;;;2.40;1.40;;;;;;;10.44;85.24;98260.48;105148;1271;75998;-25
2022/09/13 04:52:54;;;;;;;1.70;1.20;;;;;;;10.26;86.79;98261.57;104948;1274;73902;-25
2022/09/13 04:55:21;;;;;;;1.20;1.10;;;;;;;10.59;86.02;98261.19;104763;1274;61221;-25
2022/09/13 04:57:52;;;;;;;2.20;1.30;;;;;;;10.75;84.82;98268.02;104834;1273;61154;-26
2022/09/13 05:00:19;;;;;;;2.10;1.30;;;;;;;10.65;85.44;98265.56;104652;1274;74717;-25
2022/09/13 05:02:47;;;;;;;1.90;1.40;;;;;;;10.43;86.32;98269.02;104650;1272;76068;-26
2022/09/13 05:05:13;;;;;;;2.00;1.20;;;;;;;10.22;87.47;98270.07;105016;1272;74382;-26
2022/09/13 05:07:41;;;;;;;2.10;1.40;;;;;;;10.52;86.86;98273.27;104847;1274;61141;-26
2022/09/13 05:10:09;;;;;;;1.70;1.40;;;;;;;10.66;85.54;98270.00;104754;1274;61119;-26
2022/09/13 05:12:36;;;;;;;2.10;1.50;;;;;;;10.62;85.96;98270.55;104693;1274;75576;-26
2022/09/13 05:15:05;;;;;;;3.60;1.40;;;;;;;10.56;86.19;98269.92;104745;1274;75880;-25
2022/09/13 05:17:32;;;;;;;2.10;1.60;;;;;;;10.31;87.34;98266.98;104667;1274;74425;-25
2022/09/13 05:19:59;;;;;;;3.90;1.30;;;;;;;10.31;87.46;98270.09;104782;1274;63729;-26
2022/09/13 05:22:26;;;;;;;2.00;1.70;;;;;;;10.62;86.63;98267.09;104712;1274;61176;-25
2022/09/13 05:24:53;;;;;;;2.10;1.90;;;;;;;10.75;85.54;98262.05;104793;1274;75268;-25
2022/09/13 05:27:21;;;;;;;2.90;2.20;;;;;;;10.55;86.27;98261.70;104860;1274;75968;-25
2022/09/13 05:29:48;;;;;;;5.00;2.30;;;;;;;10.38;86.98;98261.88;104803;1274;74241;-25
2022/09/13 05:32:15;;;;;;;1.50;1.30;;;;;;;10.27;87.59;98267.92;104810;1274;62651;-25
2022/09/13 05:34:42;;;;;;;2.40;1.90;;;;;;;10.66;86.78;98271.30;104848;1272;61139;-24
2022/09/13 05:37:09;;;;;;;3.60;2.10;;;;;;;10.75;85.42;98266.91;104631;1274;75382;-24
2022/09/13 05:39:36;;;;;;;4.30;2.40;;;;;;;10.67;85.42;98269.91;104816;1274;76031;-24
2022/09/13 05:42:22;;;;;;;3.50;2.30;;;;;;;10.51;86.25;98269.69;104871;1270;74730;-24
2022/09/13 05:44:49;;;;;;;2.40;1.70;;;;;;;10.41;87.00;98275.42;104917;1271;61433;-24
2022/09/13 05:47:17;;;;;;;2.40;1.80;;;;;;;10.70;86.29;98276.59;104910;1271;61111;-24
2022/09/13 05:49:44;;;;;;;4.70;1.60;;;;;;;11.01;84.54;98280.16;104973;1271;75281;-24
2022/09/13 05:52:30;;;;;;;2.60;1.80;;;;;;;10.97;84.22;98282.90;104869;1271;76152;-24
2022/09/13 05:54:57;;;;;;;3.70;2.70;;;;;;;10.76;85.07;98282.95;104922;1271;74347;-24
2022/09/13 05:57:25;;;;;;;2.40;1.70;;;;;;;10.57;86.09;98283.52;104872;1271;61107;-24
2022/09/13 05:59:52;;;;;;;4.90;1.50;;;;;;;10.43;86.63;98283.77;104884;1271;61275;-24
2022/09/13 06:02:18;;;;;;;1.90;1.50;;;;;;;10.75;85.64;98282.18;104774;1271;75525;-24
2022/09/13 06:04:46;;;;;;;2.70;1.70;;;;;;;10.91;84.86;98287.02;104908;1271;75940;-24
2022/09/13 06:07:13;;;;;;;3.10;1.90;;;;;;;10.79;85.05;98284.92;104947;1271;74422;-25
2022/09/13 06:09:40;;;;;;;1.90;1.70;;;;;;;10.55;86.20;98285.42;104882;1271;61025;-25
2022/09/13 06:12:07;;;;;;;2.70;1.80;;;;;;;10.42;86.98;98285.73;104902;1271;61072;-25
2022/09/13 06:14:34;;;;;;;2.10;1.70;;;;;;;10.80;85.96;98288.32;104994;1271;75492;-25
2022/09/13 06:17:01;;;;;;;2.60;2.20;;;;;;;11.12;84.45;98286.75;104927;1271;76352;-25
2022/09/13 06:19:28;;;;;;;2.70;2.20;;;;;;;11.11;83.67;98290.67;104934;1271;74486;-25
2022/09/13 06:21:55;;;;;;;3.20;1.90;;;;;;;10.85;84.79;98289.75;104705;1271;61128;-25
2022/09/13 06:24:21;;;;;;;2.90;2.30;;;;;;;10.58;86.11;98287.48;104912;1271;61064;-25
2022/09/13 06:26:48;;;;;;;2.50;1.70;;;;;;;10.62;86.95;98289.54;104826;1271;75090;-25
2022/09/13 06:29:15;;;;;;;2.10;1.90;;;;;;;11.01;85.05;98293.64;104925;1271;76029;-25
2022/09/13 06:31:44;;;;;;;2.90;1.80;;;;;;;11.23;84.25;98290.58;104874;1271;73469;-25
2022/09/13 06:34:16;;;;;;;3.00;1.70;;;;;;;11.08;84.41;98288.36;104746;1271;61249;-25
2022/09/13 06:36:43;;;;;;;3.40;2.00;;;;;;;10.91;85.33;98292.38;104693;1271;61235;-25
2022/09/13 06:39:10;;;;;;;1.90;1.50;;;;;;;10.76;86.41;98295.73;104913;1271;75553;-25
2022/09/13 06:41:37;;;;;;;3.60;2.00;;;;;;;11.12;85.09;98299.21;104919;1271;75932;-25
2022/09/13 06:44:04;;;;;;;2.80;2.00;;;;;;;11.48;83.75;98296.88;104949;1271;74544;-25
2022/09/13 06:46:32;;;;;;;2.40;1.80;;;;;;;11.23;83.24;98295.23;104875;1271;61035;-25
2022/09/13 06:49:01;;;;;;;2.70;2.00;;;;;;;11.15;84.30;98299.99;104699;1271;61038;-24
2022/09/13 06:51:31;;;;;;;1.80;1.50;;;;;;;10.99;85.00;98297.69;104800;1271;74385;-24
2022/09/13 06:53:59;;;;;;;3.20;1.50;;;;;;;10.85;86.06;98300.00;104869;1271;77236;-24
2022/09/13 06:56:31;;;;;;;3.40;1.80;;;;;;;11.34;84.78;98303.58;104758;1271;74172;-25
2022/09/13 06:58:59;;;;;;;2.60;2.00;;;;;;;11.78;82.42;98301.73;104764;1271;60952;-25
2022/09/13 07:01:30;;;;;;;3.50;2.30;;;;;;;11.74;81.94;98299.88;104648;1271;62034;-25
2022/09/13 07:04:02;;;;;;;5.30;2.50;;;;;;;11.35;82.82;98300.00;104829;1271;75494;-25
2022/09/13 07:06:31;;;;;;;3.60;2.30;;;;;;;11.18;84.10;98303.65;104798;1271;75914;-24
2022/09/13 07:09:00;;;;;;;2.00;1.50;;;;;;;10.95;85.40;98303.20;105033;1271;74259;-24
2022/09/13 07:11:33;;;;;;;4.20;2.20;;;;;;;11.32;84.49;98300.84;104705;1271;61987;-24
2022/09/13 07:14:00;;;;;;;4.90;3.30;;;;;;;11.74;82.51;98302.00;104749;1271;62031;-24
2022/09/13 07:16:29;;;;;;;4.20;2.50;;;;;;;11.75;82.17;98302.23;104949;1271;75303;-24
2022/09/13 07:19:04;;;;;;;5.00;3.70;;;;;;;11.62;82.58;98299.42;105084;1270;76032;-24
2022/09/13 07:21:32;;;;;;;5.30;3.20;;;;;;;11.35;83.72;98295.40;104820;1271;74386;-24
2022/09/13 07:24:00;;;;;;;2.80;2.00;;;;;;;11.20;84.82;98299.39;104783;1273;63617;-24
2022/09/13 07:26:27;;;;;;;4.20;2.80;;;;;;;11.53;83.82;98298.60;104949;1271;61859;-24
2022/09/13 07:28:56;;;;;;;5.60;2.90;;;;;;;11.77;83.10;98305.02;104993;1271;75535;-24
2022/09/13 07:31:25;;;;;;;6.30;2.80;;;;;;;11.71;82.67;98306.96;104805;1271;74791;-24
2022/09/13 07:33:54;;;;;;;4.10;2.60;;;;;;;11.40;83.82;98311.80;104824;1271;72793;-24
2022/09/13 07:36:21;;;;;;;6.40;3.10;;;;;;;11.12;84.94;98316.73;104716;1271;61109;-24
2022/09/13 07:38:49;;;;;;;4.10;2.90;;;;;;;11.03;86.08;98317.95;104746;1271;61084;-24
2022/09/13 07:41:17;;;;;;;3.80;2.80;;;;;;;11.63;84.33;98319.52;104921;1271;75460;-24
2022/09/13 07:43:45;;;;;;;5.20;2.70;;;;;;;11.67;83.44;98317.10;104737;1271;75964;-24
2022/09/13 07:46:13;;;;;;;4.00;2.60;;;;;;;11.45;83.91;98316.94;104906;1271;74494;-24
2022/09/13 07:48:42;;;;;;;5.40;2.80;;;;;;;11.29;84.82;98320.17;104771;1271;62106;-24
2022/09/13 07:51:14;;;;;;;4.10;2.60;;;;;;;11.20;85.55;98322.11;104623;1274;61140;-24
2022/09/13 07:53:41;;;;;;;4.90;2.40;;;;;;;11.58;84.35;98316.23;104640;1273;75492;-24
2022/09/13 07:56:10;;;;;;;6.80;3.70;;;;;;;11.85;82.77;98313.95;104591;1274;75224;-24
2022/09/13 07:58:38;;;;;;;7.60;3.70;;;;;;;11.74;82.88;98317.41;104722;1271;74840;-25
2022/09/13 08:21:43;;;;;;;6.10;1.80;;;;;;;10.16;92.66;98312.05;102599;1297;617099;-26
2022/09/13 08:24:21;;;;;;;7.10;2.30;;;;;;;10.84;89.49;98311.73;104653;1281;61161;-24
2022/09/13 08:26:50;;;;;;;4.40;2.00;;;;;;;11.42;86.20;98317.95;104450;1281;61038;-24
2022/09/13 08:29:18;;;;;;;4.80;2.90;;;;;;;11.66;84.97;98320.29;104572;1281;73935;-24
2022/09/13 08:31:45;;;;;;;4.30;2.50;;;;;;;11.48;85.21;98316.34;104542;1281;76158;-24
2022/09/13 08:34:13;;;;;;;6.90;3.00;;;;;;;11.31;86.32;98324.55;103154;1278;1798524;-24
2022/09/13 08:36:41;;;;;;;3.70;2.30;;;;;;;11.20;86.97;98323.54;104495;1278;63061;-24
2022/09/13 08:39:08;;;;;;;7.10;3.60;;;;;;;11.50;85.91;98320.08;104651;1278;61098;-24
2022/09/13 08:41:43;;;;;;;5.40;3.70;;;;;;;11.64;84.64;98315.44;105076;1274;73780;-24
2022/09/13 08:44:35;;;;;;;6.70;3.30;;;;;;;11.58;84.94;98319.91;105148;1274;75795;-24
2022/09/13 08:47:40;;;;;;;4.60;2.80;;;;;;;11.34;86.00;98319.73;104775;1274;74142;-24
2022/09/13 08:50:18;;;;;;;4.40;2.30;;;;;;;11.25;86.74;98322.13;104874;1274;61848;-24
2022/09/13 08:53:01;;;;;;;4.70;2.80;;;;;;;11.51;85.14;98312.71;104860;1274;61163;-25
2022/09/13 08:55:42;;;;;;;4.60;2.90;;;;;;;11.79;84.01;98316.96;104522;1275;74785;-24
2022/09/13 08:58:12;;;;;;;5.20;3.30;;;;;;;11.71;83.67;98321.17;104593;1274;75714;-24
2022/09/13 09:00:40;;;;;;;6.30;3.30;;;;;;;11.46;84.90;98314.38;104979;1274;74313;-26
2022/09/13 09:03:07;;;;;;;4.10;2.80;;;;;;;11.28;86.09;98321.01;104781;1274;63577;-24
2022/09/13 09:05:46;;;;;;;4.30;2.80;;;;;;;11.58;85.28;98320.54;105084;1274;61104;-24
2022/09/13 09:08:38;;;;;;;4.30;2.90;;;;;;;11.73;84.01;98322.23;104896;1274;74589;-24
2022/09/13 09:11:12;;;;;;;5.20;3.40;;;;;;;11.75;83.42;98321.55;104709;1275;76265;-24
2022/09/13 09:14:07;;;;;;;5.80;3.30;;;;;;;11.55;83.95;98320.84;104707;1274;74332;-24
2022/09/13 09:16:38;;;;;;;3.80;2.40;;;;;;;11.42;84.97;98318.61;104864;1274;62541;-24
2022/09/13 09:19:13;;;;;;;4.60;2.40;;;;;;;11.94;83.98;98319.86;104753;1274;61009;-24
2022/09/13 09:21:41;;;;;;;6.40;2.70;;;;;;;12.22;82.63;98320.63;104624;1277;73877;-25
2022/09/13 09:24:10;;;;;;;7.30;2.70;;;;;;;11.87;82.64;98317.91;104535;1277;75006;-26
2022/09/13 09:26:37;;;;;;;5.10;3.10;;;;;;;11.54;84.13;98319.56;104608;1278;74511;-26
2022/09/13 09:29:07;;;;;;;3.40;2.40;;;;;;;11.44;84.66;98323.13;104816;1277;61156;-26
2022/09/13 09:31:53;;;;;;;3.70;2.50;;;;;;;11.60;85.01;98323.17;104585;1277;62620;-26
2022/09/13 09:34:31;;;;;;;4.60;2.60;;;;;;;11.93;82.63;98319.42;104610;1276;74719;-26
2022/09/13 09:36:58;;;;;;;5.80;3.20;;;;;;;12.15;81.82;98322.14;104716;1277;77413;-25
2022/09/13 09:39:28;;;;;;;5.10;3.20;;;;;;;12.06;81.96;98319.92;104615;1277;74349;-27
2022/09/13 09:41:56;;;;;;;5.70;3.00;;;;;;;12.04;82.63;98312.98;104568;1276;62064;-24
2022/09/13 09:44:26;;;;;;;4.50;2.90;;;;;;;11.84;83.03;98319.09;104571;1277;61138;-24
2022/09/13 09:47:10;;;;;;;3.50;2.30;;;;;;;11.96;83.31;98319.13;104615;1277;74884;-26
2022/09/13 09:50:09;;;;;;;3.70;2.50;;;;;;;12.50;81.17;98320.56;104621;1277;75887;-24
2022/09/13 09:52:58;;;;;;;4.30;2.90;;;;;;;12.32;80.77;98321.38;104660;1277;74198;-24
2022/09/13 09:55:30;;;;;;;4.70;2.60;;;;;;;11.99;81.89;98319.67;104829;1277;61131;-25
2022/09/13 09:57:58;;;;;;;4.10;2.70;;;;;;;11.85;82.79;98322.63;104613;1277;61101;-24
2022/09/13 10:00:28;;;;;;;3.10;2.10;;;;;;;11.75;83.00;98319.44;104417;1277;74405;-24
2022/09/13 10:02:58;;;;;;;4.20;2.40;;;;;;;12.00;82.24;98318.42;104700;1277;75971;-25
2022/09/13 10:05:26;;;;;;;6.10;2.80;;;;;;;12.28;81.35;98319.98;104513;1277;74346;-26
2022/09/13 10:07:57;;;;;;;4.70;2.70;;;;;;;12.32;81.45;98318.07;104520;1278;61063;-26
2022/09/13 10:10:31;;;;;;;3.40;2.50;;;;;;;11.96;82.86;98319.86;104686;1274;61856;-25
2022/09/13 10:13:00;;;;;;;4.40;3.00;;;;;;;11.65;83.97;98326.08;104703;1274;74660;-25
2022/09/13 10:15:31;;;;;;;4.70;2.30;;;;;;;11.53;84.48;98322.81;105058;1274;76018;-26
2022/09/13 10:18:20;;;;;;;4.30;2.40;;;;;;;12.06;83.36;98324.61;104854;1275;74248;-26
2022/09/13 10:21:16;;;;;;;3.80;2.40;;;;;;;12.24;81.75;98326.52;105091;1271;61131;-26
2022/09/13 10:23:49;;;;;;;3.40;2.80;;;;;;;12.01;82.20;98325.43;105055;1272;61086;-26
2022/09/13 10:26:18;;;;;;;4.60;2.60;;;;;;;11.88;83.43;98327.18;104836;1272;74623;-25
2022/09/13 10:28:46;;;;;;;4.70;2.20;;;;;;;11.85;83.70;98329.77;104758;1272;76113;-26
2022/09/13 10:31:14;;;;;;;3.80;2.50;;;;;;;12.25;82.80;98333.66;104848;1274;74875;-25
2022/09/13 10:33:49;;;;;;;5.10;3.00;;;;;;;12.24;81.36;98327.83;104939;1271;62078;-25
2022/09/13 10:36:19;;;;;;;4.10;3.10;;;;;;;12.16;81.97;98328.30;104891;1271;60987;-25
2022/09/13 10:39:11;;;;;;;4.20;3.30;;;;;;;12.08;82.39;98326.50;104808;1271;74726;-26
2022/09/13 10:41:44;;;;;;;4.70;3.00;;;;;;;11.79;83.97;98330.50;104729;1271;75898;-25
2022/09/13 10:44:25;;;;;;;4.40;2.80;;;;;;;11.74;84.51;98328.91;104660;1271;74412;-25
2022/09/13 10:46:52;;;;;;;5.10;3.00;;;;;;;12.18;82.90;98330.16;105072;1271;61160;-25
2022/09/13 10:49:47;;;;;;;5.90;3.30;;;;;;;12.41;81.27;98333.98;104890;1271;60983;-25
2022/09/13 10:52:33;;;;;;;6.20;4.00;;;;;;;12.30;81.28;98329.52;104993;1271;74682;-25
2022/09/13 10:55:18;;;;;;;6.30;3.50;;;;;;;12.05;82.03;98324.75;105126;1272;76119;-25
2022/09/13 10:57:47;;;;;;;6.50;3.20;;;;;;;11.84;83.62;98325.52;104871;1273;74230;-26
2022/09/13 11:00:32;;;;;;;5.60;2.60;;;;;;;11.91;83.53;98323.65;104751;1271;63137;-25
2022/09/13 11:03:02;;;;;;;6.00;3.30;;;;;;;12.38;81.73;98323.73;104702;1274;62138;-25
2022/09/13 11:05:54;;;;;;;6.50;3.90;;;;;;;12.28;81.66;98317.44;104801;1274;73198;-26
2022/09/13 11:08:31;;;;;;;5.50;3.10;;;;;;;12.21;82.10;98321.08;104727;1274;75047;-25
2022/09/13 11:11:23;;;;;;;5.80;3.40;;;;;;;12.11;82.69;98314.62;104793;1274;74220;-24
2022/09/13 11:14:09;;;;;;;4.30;2.80;;;;;;;11.95;83.47;98309.95;105125;1271;62661;-25
2022/09/13 11:16:52;;;;;;;5.30;3.70;;;;;;;12.33;82.28;98312.23;105140;1272;62061;-25
2022/09/13 11:19:38;;;;;;;5.40;3.40;;;;;;;12.52;80.99;98308.06;104801;1271;75000;-24
2022/09/13 11:22:21;;;;;;;4.60;3.10;;;;;;;12.48;81.33;98313.46;104845;1271;76013;-26
2022/09/13 11:24:58;;;;;;;5.00;3.20;;;;;;;12.40;81.69;98312.57;104780;1271;74243;-24
2022/09/13 11:27:46;;;;;;;5.70;3.40;;;;;;;12.32;82.01;98313.02;104802;1274;63612;-28
2022/09/13 11:30:23;;;;;;;8.10;3.10;;;;;;;12.69;80.07;98305.60;104917;1271;61050;-26
2022/09/13 11:33:02;;;;;;;4.30;3.00;;;;;;;12.91;79.05;98302.21;104728;1272;74617;-26
2022/09/13 11:35:45;;;;;;;4.40;3.30;;;;;;;12.84;79.20;98303.39;104752;1274;76089;-27
2022/09/13 11:38:31;;;;;;;5.20;2.90;;;;;;;12.75;80.05;98305.17;104894;1271;75017;-25
2022/09/13 11:41:21;;;;;;;5.90;3.70;;;;;;;12.62;80.40;98306.55;104618;1274;61153;-26
2022/09/13 11:44:10;;;;;;;3.10;2.30;;;;;;;12.43;81.92;98310.56;104784;1271;61909;-25
2022/09/13 11:46:42;;;;;;;5.20;2.80;;;;;;;12.97;79.91;98309.59;104815;1271;75308;-24
2022/09/13 11:49:28;;;;;;;6.90;3.70;;;;;;;13.08;78.58;98304.48;104759;1271;77397;-24
2022/09/13 11:51:58;;;;;;;4.70;2.90;;;;;;;12.88;79.22;98305.66;104649;1274;74588;-25
2022/09/13 11:54:28;;;;;;;5.00;3.20;;;;;;;12.82;80.08;98309.89;104668;1274;61070;-24
2022/09/13 11:56:59;;;;;;;5.10;3.00;;;;;;;12.66;80.62;98311.85;104721;1274;61125;-23
2022/09/13 11:59:39;;;;;;;4.60;3.10;;;;;;;12.52;81.01;98309.25;104776;1274;73693;-23
2022/09/13 12:02:31;;;;;;;4.60;2.80;;;;;;;12.89;79.77;98307.30;104785;1271;76417;-24
2022/09/13 12:05:06;;;;;;;4.00;3.00;;;;;;;13.12;78.36;98308.38;105047;1271;74445;-24
2022/09/13 12:07:57;;;;;;;6.60;3.30;;;;;;;12.93;78.69;98306.89;104694;1271;61137;-24
2022/09/13 12:10:49;;;;;;;3.70;2.80;;;;;;;12.65;80.22;98307.02;104710;1274;61369;-25
2022/09/13 12:13:21;;;;;;;3.80;2.70;;;;;;;12.44;81.16;98306.79;104851;1271;74662;-25
2022/09/13 12:15:55;;;;;;;5.50;2.80;;;;;;;12.37;81.92;98306.36;104985;1274;75871;-25